sensor_id;sensor_type;location;lat;lon;timestamp;pressure;altitude;pressure_sealevel;temperature;humidity
11672;BME280;5892;43.412;24.612;2023-02-18T00:00:54;100619.44;;;7.38;59.24
11672;BME280;5892;43.412;24.612;2023-02-18T00:03:22;100619.44;;;7.38;59.32
11672;BME280;5892;43.412;24.612;2023-02-18T00:05:50;100615.06;;;7.42;58.36
11672;BME280;5892;43.412;24.612;2023-02-18T00:08:17;100623.28;;;7.37;59.00
11672;BME280;5892;43.412;24.612;2023-02-18T00:10:44;100622.50;;;7.27;58.96
11672;BME280;5892;43.412;24.612;2023-02-18T00:13:11;100613.84;;;7.14;58.97
11672;BME280;5892;43.412;24.612;2023-02-18T00:15:38;100597.84;;;6.98;60.55
11672;BME280;5892;43.412;24.612;2023-02-18T00:18:06;100593.78;;;6.95;60.08
11672;BME280;5892;43.412;24.612;2023-02-18T00:20:34;100607.38;;;7.00;60.20
11672;BME280;5892;43.412;24.612;2023-02-18T00:23:03;100581.78;;;6.91;60.25
11672;BME280;5892;43.412;24.612;2023-02-18T00:25:29;100600.81;;;7.06;59.66
11672;BME280;5892;43.412;24.612;2023-02-18T00:27:56;100586.59;;;7.14;59.17
11672;BME280;5892;43.412;24.612;2023-02-18T00:30:23;100585.53;;;7.10;59.02
11672;BME280;5892;43.412;24.612;2023-02-18T00:32:50;100584.19;;;7.03;60.18
11672;BME280;5892;43.412;24.612;2023-02-18T00:35:17;100580.25;;;6.75;61.28
11672;BME280;5892;43.412;24.612;2023-02-18T00:37:44;100578.63;;;6.69;61.06
11672;BME280;5892;43.412;24.612;2023-02-18T00:40:12;100582.22;;;6.59;61.62
11672;BME280;5892;43.412;24.612;2023-02-18T00:42:39;100571.91;;;6.41;61.99
11672;BME280;5892;43.412;24.612;2023-02-18T00:45:07;100580.91;;;6.36;62.74
11672;BME280;5892;43.412;24.612;2023-02-18T00:47:34;100562.41;;;6.28;62.64
11672;BME280;5892;43.412;24.612;2023-02-18T00:50:01;100577.09;;;6.37;62.59
11672;BME280;5892;43.412;24.612;2023-02-18T00:52:27;100536.59;;;6.21;62.35
11672;BME280;5892;43.412;24.612;2023-02-18T00:54:54;100573.84;;;6.25;63.08
11672;BME280;5892;43.412;24.612;2023-02-18T00:57:23;100572.50;;;6.23;63.36
11672;BME280;5892;43.412;24.612;2023-02-18T00:59:49;100540.66;;;6.18;62.63
11672;BME280;5892;43.412;24.612;2023-02-18T01:02:17;100560.47;;;6.39;62.82
11672;BME280;5892;43.412;24.612;2023-02-18T01:04:46;100550.41;;;6.34;62.35
11672;BME280;5892;43.412;24.612;2023-02-18T01:07:13;100555.84;;;6.45;61.83
11672;BME280;5892;43.412;24.612;2023-02-18T01:09:39;100555.28;;;6.48;61.88
11672;BME280;5892;43.412;24.612;2023-02-18T01:12:06;100513.47;;;6.08;63.15
11672;BME280;5892;43.412;24.612;2023-02-18T01:14:34;100523.84;;;6.01;64.21
11672;BME280;5892;43.412;24.612;2023-02-18T01:17:01;100533.13;;;5.90;65.22
11672;BME280;5892;43.412;24.612;2023-02-18T01:19:28;100535.56;;;6.02;64.93
11672;BME280;5892;43.412;24.612;2023-02-18T01:21:55;100551.56;;;6.03;64.47
11672;BME280;5892;43.412;24.612;2023-02-18T01:24:22;100542.59;;;6.08;64.63
11672;BME280;5892;43.412;24.612;2023-02-18T01:26:49;100537.44;;;6.06;64.82
11672;BME280;5892;43.412;24.612;2023-02-18T01:29:16;100533.34;;;6.04;64.42
11672;BME280;5892;43.412;24.612;2023-02-18T01:31:44;100525.19;;;6.04;64.81
11672;BME280;5892;43.412;24.612;2023-02-18T01:34:11;100527.63;;;6.10;63.99
11672;BME280;5892;43.412;24.612;2023-02-18T01:36:38;100521.91;;;6.17;64.06
11672;BME280;5892;43.412;24.612;2023-02-18T01:39:05;100514.25;;;6.29;63.57
11672;BME280;5892;43.412;24.612;2023-02-18T01:41:32;100518.31;;;6.31;63.03
11672;BME280;5892;43.412;24.612;2023-02-18T01:44:16;100504.44;;;6.38;63.12
11672;BME280;5892;43.412;24.612;2023-02-18T01:46:44;100516.66;;;6.41;63.70
11672;BME280;5892;43.412;24.612;2023-02-18T01:49:14;100495.97;;;6.39;63.13
11672;BME280;5892;43.412;24.612;2023-02-18T01:51:45;100500.31;;;6.46;62.75
11672;BME280;5892;43.412;24.612;2023-02-18T01:54:15;100493.75;;;6.52;63.02
11672;BME280;5892;43.412;24.612;2023-02-18T01:56:47;100495.91;;;6.55;63.68
11672;BME280;5892;43.412;24.612;2023-02-18T01:59:18;100495.41;;;6.48;64.51
11672;BME280;5892;43.412;24.612;2023-02-18T02:01:49;100505.75;;;6.46;64.68
11672;BME280;5892;43.412;24.612;2023-02-18T02:04:16;100510.63;;;6.54;63.52
11672;BME280;5892;43.412;24.612;2023-02-18T02:06:43;100501.63;;;6.58;62.94
11672;BME280;5892;43.412;24.612;2023-02-18T02:09:12;100502.88;;;6.76;62.16
11672;BME280;5892;43.412;24.612;2023-02-18T02:11:54;100507.78;;;6.79;62.49
11672;BME280;5892;43.412;24.612;2023-02-18T02:14:34;100491.72;;;6.77;61.31
11672;BME280;5892;43.412;24.612;2023-02-18T02:17:12;100505.97;;;7.08;60.84
11672;BME280;5892;43.412;24.612;2023-02-18T02:20:06;100501.59;;;7.07;61.28
11672;BME280;5892;43.412;24.612;2023-02-18T02:23:11;100511.09;;;7.15;60.78
11672;BME280;5892;43.412;24.612;2023-02-18T02:29:36;100501.75;;;7.26;59.94
11672;BME280;5892;43.412;24.612;2023-02-18T02:32:20;100500.88;;;7.36;59.61
11672;BME280;5892;43.412;24.612;2023-02-18T02:34:57;100497.00;;;7.42;59.62
11672;BME280;5892;43.412;24.612;2023-02-18T02:37:31;100487.75;;;7.43;59.62
11672;BME280;5892;43.412;24.612;2023-02-18T02:40:14;100481.06;;;7.54;59.37
11672;BME280;5892;43.412;24.612;2023-02-18T02:42:50;100483.53;;;7.55;58.89
11672;BME280;5892;43.412;24.612;2023-02-18T02:45:28;100474.47;;;7.60;58.30
11672;BME280;5892;43.412;24.612;2023-02-18T02:48:08;100472.19;;;7.72;58.27
11672;BME280;5892;43.412;24.612;2023-02-18T02:50:43;100476.34;;;7.93;57.14
11672;BME280;5892;43.412;24.612;2023-02-18T02:53:15;100480.13;;;7.97;57.00
11672;BME280;5892;43.412;24.612;2023-02-18T02:55:44;100478.63;;;8.10;56.69
11672;BME280;5892;43.412;24.612;2023-02-18T02:58:14;100486.28;;;8.08;56.74
11672;BME280;5892;43.412;24.612;2023-02-18T03:00:52;100490.09;;;8.07;56.98
11672;BME280;5892;43.412;24.612;2023-02-18T03:03:42;100482.00;;;8.26;56.38
11672;BME280;5892;43.412;24.612;2023-02-18T03:06:48;100481.09;;;8.35;56.33
11672;BME280;5892;43.412;24.612;2023-02-18T03:09:25;100478.09;;;8.37;56.15
11672;BME280;5892;43.412;24.612;2023-02-18T03:12:03;100487.19;;;8.51;55.96
11672;BME280;5892;43.412;24.612;2023-02-18T03:14:37;100486.59;;;8.54;56.08
11672;BME280;5892;43.412;24.612;2023-02-18T03:17:11;100487.19;;;8.70;55.74
11672;BME280;5892;43.412;24.612;2023-02-18T03:19:45;100488.84;;;8.71;55.52
11672;BME280;5892;43.412;24.612;2023-02-18T03:22:17;100485.22;;;8.75;55.22
11672;BME280;5892;43.412;24.612;2023-02-18T03:24:48;100487.16;;;8.93;54.79
11672;BME280;5892;43.412;24.612;2023-02-18T03:27:20;100487.44;;;8.92;54.24
11672;BME280;5892;43.412;24.612;2023-02-18T03:29:51;100488.19;;;8.98;54.32
11672;BME280;5892;43.412;24.612;2023-02-18T03:32:21;100480.41;;;9.23;53.76
11672;BME280;5892;43.412;24.612;2023-02-18T03:34:50;100430.41;;;9.04;53.51
11672;BME280;5892;43.412;24.612;2023-02-18T03:37:20;100477.81;;;9.32;53.45
11672;BME280;5892;43.412;24.612;2023-02-18T03:39:51;100483.81;;;9.34;53.23
11672;BME280;5892;43.412;24.612;2023-02-18T03:42:24;100473.22;;;9.46;52.84
11672;BME280;5892;43.412;24.612;2023-02-18T03:44:51;100472.41;;;9.46;52.86
11672;BME280;5892;43.412;24.612;2023-02-18T03:47:18;100490.69;;;9.64;52.72
11672;BME280;5892;43.412;24.612;2023-02-18T03:49:45;100476.72;;;9.65;52.59
11672;BME280;5892;43.412;24.612;2023-02-18T03:52:12;100481.09;;;9.80;52.04
11672;BME280;5892;43.412;24.612;2023-02-18T03:54:43;100480.63;;;9.92;51.75
11672;BME280;5892;43.412;24.612;2023-02-18T03:57:09;100490.47;;;10.06;51.47
11672;BME280;5892;43.412;24.612;2023-02-18T03:59:36;100467.22;;;9.90;51.36
11672;BME280;5892;43.412;24.612;2023-02-18T04:02:03;100489.16;;;10.04;51.38
11672;BME280;5892;43.412;24.612;2023-02-18T04:04:30;100498.09;;;10.09;51.36
11672;BME280;5892;43.412;24.612;2023-02-18T04:06:57;100463.47;;;9.86;51.24
11672;BME280;5892;43.412;24.612;2023-02-18T04:09:24;100479.13;;;9.99;51.41
11672;BME280;5892;43.412;24.612;2023-02-18T04:11:52;100488.38;;;10.17;50.92
11672;BME280;5892;43.412;24.612;2023-02-18T04:14:19;100490.00;;;10.18;51.03
11672;BME280;5892;43.412;24.612;2023-02-18T04:16:46;100479.25;;;10.22;50.59
11672;BME280;5892;43.412;24.612;2023-02-18T04:19:13;100481.69;;;10.23;50.85
11672;BME280;5892;43.412;24.612;2023-02-18T04:21:40;100481.81;;;10.18;50.93
11672;BME280;5892;43.412;24.612;2023-02-18T04:24:06;100466.91;;;10.24;50.67
11672;BME280;5892;43.412;24.612;2023-02-18T04:26:33;100462.13;;;10.30;50.06
11672;BME280;5892;43.412;24.612;2023-02-18T04:29:02;100463.44;;;10.32;50.27
11672;BME280;5892;43.412;24.612;2023-02-18T04:31:28;100463.94;;;10.34;50.29
11672;BME280;5892;43.412;24.612;2023-02-18T04:33:55;100445.78;;;10.38;50.19
11672;BME280;5892;43.412;24.612;2023-02-18T04:36:22;100459.38;;;10.43;50.55
11672;BME280;5892;43.412;24.612;2023-02-18T04:38:49;100455.41;;;10.49;50.17
11672;BME280;5892;43.412;24.612;2023-02-18T04:41:16;100458.16;;;10.49;50.22
11672;BME280;5892;43.412;24.612;2023-02-18T04:43:42;100465.16;;;10.55;50.00
11672;BME280;5892;43.412;24.612;2023-02-18T04:46:11;100467.19;;;10.50;49.83
11672;BME280;5892;43.412;24.612;2023-02-18T04:48:38;100460.38;;;10.47;50.27
11672;BME280;5892;43.412;24.612;2023-02-18T04:51:05;100457.53;;;10.52;49.60
11672;BME280;5892;43.412;24.612;2023-02-18T04:53:32;100451.22;;;10.66;49.56
11672;BME280;5892;43.412;24.612;2023-02-18T04:55:59;100451.22;;;10.66;49.23
11672;BME280;5892;43.412;24.612;2023-02-18T04:58:26;100444.00;;;10.70;49.42
11672;BME280;5892;43.412;24.612;2023-02-18T05:00:53;100416.94;;;10.54;49.38
11672;BME280;5892;43.412;24.612;2023-02-18T05:03:25;100377.41;;;10.33;50.12
11672;BME280;5892;43.412;24.612;2023-02-18T05:05:52;100432.97;;;10.61;50.21
11672;BME280;5892;43.412;24.612;2023-02-18T05:08:19;100433.47;;;10.63;49.39
11672;BME280;5892;43.412;24.612;2023-02-18T05:10:46;100432.16;;;10.60;49.45
11672;BME280;5892;43.412;24.612;2023-02-18T05:13:13;100435.38;;;10.76;48.99
11672;BME280;5892;43.412;24.612;2023-02-18T05:15:40;100418.50;;;10.83;49.33
11672;BME280;5892;43.412;24.612;2023-02-18T05:18:06;100431.19;;;10.79;49.53
11672;BME280;5892;43.412;24.612;2023-02-18T05:20:35;100430.72;;;10.77;49.53
11672;BME280;5892;43.412;24.612;2023-02-18T05:23:02;100429.50;;;10.69;49.63
11672;BME280;5892;43.412;24.612;2023-02-18T05:25:29;100421.66;;;10.76;49.60
11672;BME280;5892;43.412;24.612;2023-02-18T05:27:55;100424.00;;;10.83;49.12
11672;BME280;5892;43.412;24.612;2023-02-18T05:30:22;100416.25;;;10.85;49.56
11672;BME280;5892;43.412;24.612;2023-02-18T05:32:49;100426.22;;;10.81;49.70
11672;BME280;5892;43.412;24.612;2023-02-18T05:35:16;100416.88;;;10.82;49.14
11672;BME280;5892;43.412;24.612;2023-02-18T05:37:44;100423.88;;;10.88;49.48
11672;BME280;5892;43.412;24.612;2023-02-18T05:40:11;100427.72;;;10.87;49.33
11672;BME280;5892;43.412;24.612;2023-02-18T05:42:38;100429.41;;;10.96;49.35
11672;BME280;5892;43.412;24.612;2023-02-18T05:45:06;100420.50;;;10.91;48.87
11672;BME280;5892;43.412;24.612;2023-02-18T05:47:33;100427.53;;;11.05;48.87
11672;BME280;5892;43.412;24.612;2023-02-18T05:49:59;100414.16;;;11.04;49.45
11672;BME280;5892;43.412;24.612;2023-02-18T05:52:26;100423.88;;;11.10;49.39
11672;BME280;5892;43.412;24.612;2023-02-18T05:54:55;100424.50;;;11.07;49.69
11672;BME280;5892;43.412;24.612;2023-02-18T05:57:22;100413.53;;;11.07;49.42
11672;BME280;5892;43.412;24.612;2023-02-18T05:59:49;100425.31;;;11.08;49.45
11672;BME280;5892;43.412;24.612;2023-02-18T06:02:16;100419.03;;;11.07;49.38
11672;BME280;5892;43.412;24.612;2023-02-18T06:04:43;100400.34;;;11.09;49.31
11672;BME280;5892;43.412;24.612;2023-02-18T06:07:10;100402.31;;;11.17;48.38
11672;BME280;5892;43.412;24.612;2023-02-18T06:09:36;100400.94;;;11.28;48.29
11672;BME280;5892;43.412;24.612;2023-02-18T06:12:05;100415.16;;;11.30;48.43
11672;BME280;5892;43.412;24.612;2023-02-18T06:14:32;100413.72;;;11.33;48.71
11672;BME280;5892;43.412;24.612;2023-02-18T06:16:59;100424.38;;;11.34;48.90
11672;BME280;5892;43.412;24.612;2023-02-18T06:19:26;100427.19;;;11.43;48.56
11672;BME280;5892;43.412;24.612;2023-02-18T06:21:53;100417.56;;;11.32;48.67
11672;BME280;5892;43.412;24.612;2023-02-18T06:24:20;100406.59;;;11.32;48.33
11672;BME280;5892;43.412;24.612;2023-02-18T06:26:47;100426.91;;;11.53;48.44
11672;BME280;5892;43.412;24.612;2023-02-18T06:29:15;100428.25;;;11.56;48.34
11672;BME280;5892;43.412;24.612;2023-02-18T06:31:42;100419.88;;;11.61;47.73
11672;BME280;5892;43.412;24.612;2023-02-18T06:34:09;100431.09;;;11.73;47.49
11672;BME280;5892;43.412;24.612;2023-02-18T06:36:36;100423.59;;;11.87;47.06
11672;BME280;5892;43.412;24.612;2023-02-18T06:39:04;100423.94;;;11.94;46.65
11672;BME280;5892;43.412;24.612;2023-02-18T06:41:31;100421.03;;;11.99;46.99
11672;BME280;5892;43.412;24.612;2023-02-18T06:43:58;100426.06;;;11.97;47.00
11672;BME280;5892;43.412;24.612;2023-02-18T06:46:26;100437.06;;;12.06;46.18
11672;BME280;5892;43.412;24.612;2023-02-18T06:48:53;100423.03;;;12.16;46.74
11672;BME280;5892;43.412;24.612;2023-02-18T06:51:20;100435.19;;;12.23;46.33
11672;BME280;5892;43.412;24.612;2023-02-18T06:53:47;100428.38;;;12.21;45.65
11672;BME280;5892;43.412;24.612;2023-02-18T06:56:13;100426.16;;;12.31;45.84
11672;BME280;5892;43.412;24.612;2023-02-18T06:58:40;100429.41;;;12.34;45.84
11672;BME280;5892;43.412;24.612;2023-02-18T07:01:07;100429.56;;;12.28;46.04
11672;BME280;5892;43.412;24.612;2023-02-18T07:03:36;100445.09;;;12.42;45.67
11672;BME280;5892;43.412;24.612;2023-02-18T07:06:03;100452.88;;;12.48;45.10
11672;BME280;5892;43.412;24.612;2023-02-18T07:08:30;100457.78;;;12.60;45.67
11672;BME280;5892;43.412;24.612;2023-02-18T07:10:57;100445.00;;;12.64;44.72
11672;BME280;5892;43.412;24.612;2023-02-18T07:13:24;100467.03;;;12.81;44.19
11672;BME280;5892;43.412;24.612;2023-02-18T07:15:51;100444.22;;;12.81;43.97
11672;BME280;5892;43.412;24.612;2023-02-18T07:18:18;100471.25;;;13.04;44.03
11672;BME280;5892;43.412;24.612;2023-02-18T07:20:46;100467.56;;;13.26;43.18
11672;BME280;5892;43.412;24.612;2023-02-18T07:23:13;100451.34;;;13.50;42.74
11672;BME280;5892;43.412;24.612;2023-02-18T07:25:40;100452.16;;;13.60;42.18
11672;BME280;5892;43.412;24.612;2023-02-18T07:28:06;100435.94;;;13.58;42.19
11672;BME280;5892;43.412;24.612;2023-02-18T07:30:33;100452.75;;;13.74;42.22
11672;BME280;5892;43.412;24.612;2023-02-18T07:33:00;100452.91;;;13.86;42.03
11672;BME280;5892;43.412;24.612;2023-02-18T07:35:27;100463.38;;;13.92;41.78
11672;BME280;5892;43.412;24.612;2023-02-18T07:37:55;100459.94;;;14.13;41.47
11672;BME280;5892;43.412;24.612;2023-02-18T07:40:23;100455.91;;;14.39;41.12
11672;BME280;5892;43.412;24.612;2023-02-18T07:42:49;100453.09;;;14.77;40.39
11672;BME280;5892;43.412;24.612;2023-02-18T07:45:16;100439.19;;;14.95;39.92
11672;BME280;5892;43.412;24.612;2023-02-18T07:47:43;100457.78;;;15.27;39.36
11672;BME280;5892;43.412;24.612;2023-02-18T07:50:11;100433.91;;;15.43;38.84
11672;BME280;5892;43.412;24.612;2023-02-18T07:52:38;100458.53;;;15.81;38.08
11672;BME280;5892;43.412;24.612;2023-02-18T07:55:07;100459.28;;;16.02;38.07
11672;BME280;5892;43.412;24.612;2023-02-18T07:57:34;100466.56;;;16.19;38.00
11672;BME280;5892;43.412;24.612;2023-02-18T08:00:22;100463.72;;;16.52;37.73
11672;BME280;5892;43.412;24.612;2023-02-18T08:02:50;100465.69;;;16.64;37.47
11672;BME280;5892;43.412;24.612;2023-02-18T08:05:17;100465.09;;;16.70;37.24
11672;BME280;5892;43.412;24.612;2023-02-18T08:07:44;100439.16;;;16.26;37.40
11672;BME280;5892;43.412;24.612;2023-02-18T08:10:12;100453.44;;;16.52;37.43
11672;BME280;5892;43.412;24.612;2023-02-18T08:12:39;100459.09;;;16.56;36.76
11672;BME280;5892;43.412;24.612;2023-02-18T08:15:06;100460.25;;;16.43;37.22
11672;BME280;5892;43.412;24.612;2023-02-18T08:17:33;100460.25;;;16.43;37.33
11672;BME280;5892;43.412;24.612;2023-02-18T08:20:00;100466.72;;;16.47;37.72
11672;BME280;5892;43.412;24.612;2023-02-18T08:22:27;100448.59;;;16.25;37.71
11672;BME280;5892;43.412;24.612;2023-02-18T08:24:55;100437.09;;;16.11;36.75
11672;BME280;5892;43.412;24.612;2023-02-18T08:27:23;100454.81;;;16.34;36.16
11672;BME280;5892;43.412;24.612;2023-02-18T08:29:51;100458.50;;;16.38;36.42
11672;BME280;5892;43.412;24.612;2023-02-18T08:32:18;100455.63;;;16.35;37.07
11672;BME280;5892;43.412;24.612;2023-02-18T08:34:45;100469.59;;;16.26;35.85
11672;BME280;5892;43.412;24.612;2023-02-18T08:37:12;100446.28;;;16.15;36.02
11672;BME280;5892;43.412;24.612;2023-02-18T08:39:39;100463.13;;;16.22;36.09
11672;BME280;5892;43.412;24.612;2023-02-18T08:42:06;100452.63;;;16.16;36.19
11672;BME280;5892;43.412;24.612;2023-02-18T08:44:34;100449.41;;;16.26;36.46
11672;BME280;5892;43.412;24.612;2023-02-18T08:47:01;100454.97;;;16.38;36.29
11672;BME280;5892;43.412;24.612;2023-02-18T08:49:28;100363.47;;;15.94;36.10
11672;BME280;5892;43.412;24.612;2023-02-18T08:51:55;100437.22;;;16.63;35.84
11672;BME280;5892;43.412;24.612;2023-02-18T08:54:22;100447.56;;;16.66;36.03
11672;BME280;5892;43.412;24.612;2023-02-18T08:56:53;100427.31;;;16.38;35.86
11672;BME280;5892;43.412;24.612;2023-02-18T08:59:21;100464.50;;;16.52;35.80
11672;BME280;5892;43.412;24.612;2023-02-18T09:01:49;100451.72;;;16.36;36.17
11672;BME280;5892;43.412;24.612;2023-02-18T09:04:17;100421.41;;;16.03;36.21
11672;BME280;5892;43.412;24.612;2023-02-18T09:06:45;100474.31;;;16.38;35.93
11672;BME280;5892;43.412;24.612;2023-02-18T09:09:12;100483.19;;;16.56;35.84
11672;BME280;5892;43.412;24.612;2023-02-18T09:11:39;100459.22;;;16.47;35.72
11672;BME280;5892;43.412;24.612;2023-02-18T09:14:06;100464.75;;;16.60;35.56
11672;BME280;5892;43.412;24.612;2023-02-18T09:16:33;100462.63;;;16.93;35.32
11672;BME280;5892;43.412;24.612;2023-02-18T09:19:01;100459.00;;;17.17;35.35
11672;BME280;5892;43.412;24.612;2023-02-18T09:21:28;100477.97;;;17.43;34.49
11672;BME280;5892;43.412;24.612;2023-02-18T09:23:55;100470.75;;;17.54;34.61
11672;BME280;5892;43.412;24.612;2023-02-18T09:26:23;100469.16;;;17.53;33.63
11672;BME280;5892;43.412;24.612;2023-02-18T09:28:53;100462.50;;;17.42;34.09
11672;BME280;5892;43.412;24.612;2023-02-18T09:31:22;100478.91;;;17.34;33.94
11672;BME280;5892;43.412;24.612;2023-02-18T09:33:52;100463.69;;;17.28;34.24
11672;BME280;5892;43.412;24.612;2023-02-18T09:36:20;100468.16;;;17.05;34.36
11672;BME280;5892;43.412;24.612;2023-02-18T09:38:47;100463.31;;;17.02;34.35
11672;BME280;5892;43.412;24.612;2023-02-18T09:41:23;100469.25;;;16.76;34.97
11672;BME280;5892;43.412;24.612;2023-02-18T09:43:55;100464.88;;;16.63;35.40
11672;BME280;5892;43.412;24.612;2023-02-18T09:46:27;100455.06;;;16.66;35.63
11672;BME280;5892;43.412;24.612;2023-02-18T09:48:56;100463.84;;;16.68;35.82
11672;BME280;5892;43.412;24.612;2023-02-18T09:51:25;100460.59;;;16.90;35.85
11672;BME280;5892;43.412;24.612;2023-02-18T09:53:51;100463.69;;;16.76;35.96
11672;BME280;5892;43.412;24.612;2023-02-18T09:56:22;100438.53;;;16.93;35.88
11672;BME280;5892;43.412;24.612;2023-02-18T09:58:52;100448.38;;;17.19;35.83
11672;BME280;5892;43.412;24.612;2023-02-18T10:01:24;100444.00;;;17.18;35.83
11672;BME280;5892;43.412;24.612;2023-02-18T10:03:54;100419.97;;;16.94;35.77
11672;BME280;5892;43.412;24.612;2023-02-18T10:06:28;100433.59;;;16.75;35.84
11672;BME280;5892;43.412;24.612;2023-02-18T10:08:57;100441.47;;;16.73;36.04
11672;BME280;5892;43.412;24.612;2023-02-18T10:11:28;100433.16;;;16.61;36.33
11672;BME280;5892;43.412;24.612;2023-02-18T10:13:58;100438.47;;;16.53;36.70
11672;BME280;5892;43.412;24.612;2023-02-18T10:16:27;100442.47;;;16.44;36.76
11672;BME280;5892;43.412;24.612;2023-02-18T10:18:56;100426.38;;;16.46;36.87
11672;BME280;5892;43.412;24.612;2023-02-18T10:21:26;100425.91;;;16.32;36.98
11672;BME280;5892;43.412;24.612;2023-02-18T10:24:01;100429.03;;;16.30;36.86
11672;BME280;5892;43.412;24.612;2023-02-18T10:26:33;100397.56;;;15.98;36.58
11672;BME280;5892;43.412;24.612;2023-02-18T10:29:01;100427.97;;;16.23;37.09
11672;BME280;5892;43.412;24.612;2023-02-18T10:31:30;100420.16;;;16.25;37.13
11672;BME280;5892;43.412;24.612;2023-02-18T10:34:05;100414.50;;;16.21;36.86
11672;BME280;5892;43.412;24.612;2023-02-18T10:36:44;100410.84;;;16.17;36.69
11672;BME280;5892;43.412;24.612;2023-02-18T10:39:27;100399.28;;;16.15;36.96
11672;BME280;5892;43.412;24.612;2023-02-18T10:42:08;100396.31;;;15.96;36.94
11672;BME280;5892;43.412;24.612;2023-02-18T10:44:46;100399.75;;;16.05;37.15
11672;BME280;5892;43.412;24.612;2023-02-18T10:47:27;100396.53;;;16.03;37.39
11672;BME280;5892;43.412;24.612;2023-02-18T10:50:02;100393.78;;;16.15;37.66
11672;BME280;5892;43.412;24.612;2023-02-18T10:52:36;100368.53;;;16.04;37.13
11672;BME280;5892;43.412;24.612;2023-02-18T10:55:06;100379.50;;;16.01;37.35
11672;BME280;5892;43.412;24.612;2023-02-18T10:57:34;100394.47;;;16.00;37.69
11672;BME280;5892;43.412;24.612;2023-02-18T11:00:05;100375.13;;;16.00;37.42
11672;BME280;5892;43.412;24.612;2023-02-18T11:02:41;100340.78;;;15.77;37.31
11672;BME280;5892;43.412;24.612;2023-02-18T11:05:18;100337.56;;;15.75;37.09
11672;BME280;5892;43.412;24.612;2023-02-18T11:07:50;100361.84;;;15.93;37.27
11672;BME280;5892;43.412;24.612;2023-02-18T11:10:22;100361.28;;;15.88;36.89
11672;BME280;5892;43.412;24.612;2023-02-18T11:12:51;100267.50;;;15.34;36.87
11672;BME280;5892;43.412;24.612;2023-02-18T11:15:22;100359.44;;;15.92;36.85
11672;BME280;5892;43.412;24.612;2023-02-18T11:17:51;100345.50;;;15.88;37.06
11672;BME280;5892;43.412;24.612;2023-02-18T11:20:28;100355.66;;;15.84;36.95
11672;BME280;5892;43.412;24.612;2023-02-18T11:23:15;100353.31;;;15.86;37.27
11672;BME280;5892;43.412;24.612;2023-02-18T11:25:56;100347.91;;;15.78;37.35
11672;BME280;5892;43.412;24.612;2023-02-18T11:28:32;100336.06;;;15.77;37.17
11672;BME280;5892;43.412;24.612;2023-02-18T11:31:01;100330.31;;;15.70;37.31
11672;BME280;5892;43.412;24.612;2023-02-18T11:33:32;100344.59;;;15.84;37.12
11672;BME280;5892;43.412;24.612;2023-02-18T11:36:04;100351.03;;;15.88;37.11
11672;BME280;5892;43.412;24.612;2023-02-18T11:38:45;100346.31;;;15.89;37.33
11672;BME280;5892;43.412;24.612;2023-02-18T11:41:16;100329.25;;;15.87;37.81
11672;BME280;5892;43.412;24.612;2023-02-18T11:43:46;100292.06;;;15.72;38.23
11672;BME280;5892;43.412;24.612;2023-02-18T11:46:16;100321.22;;;15.94;38.45
11672;BME280;5892;43.412;24.612;2023-02-18T11:48:44;100334.56;;;16.04;38.48
11672;BME280;5892;43.412;24.612;2023-02-18T11:51:16;100330.88;;;16.00;38.03
11672;BME280;5892;43.412;24.612;2023-02-18T11:53:56;100332.97;;;15.91;38.25
11672;BME280;5892;43.412;24.612;2023-02-18T11:56:25;100340.09;;;16.04;38.14
11672;BME280;5892;43.412;24.612;2023-02-18T11:58:53;100307.16;;;15.99;38.01
11672;BME280;5892;43.412;24.612;2023-02-18T12:01:27;100319.34;;;16.10;37.91
11672;BME280;5892;43.412;24.612;2023-02-18T12:04:00;100297.72;;;16.00;37.29
11672;BME280;5892;43.412;24.612;2023-02-18T12:06:34;100310.72;;;16.12;37.33
11672;BME280;5892;43.412;24.612;2023-02-18T12:09:08;100315.56;;;16.15;37.02
11672;BME280;5892;43.412;24.612;2023-02-18T12:11:41;100317.50;;;16.14;37.15
11672;BME280;5892;43.412;24.612;2023-02-18T12:14:14;100308.75;;;16.12;37.33
11672;BME280;5892;43.412;24.612;2023-02-18T12:16:48;100294.97;;;16.00;36.99
11672;BME280;5892;43.412;24.612;2023-02-18T12:19:38;100284.91;;;16.07;36.92
11672;BME280;5892;43.412;24.612;2023-02-18T12:22:15;100270.31;;;15.95;36.92
11672;BME280;5892;43.412;24.612;2023-02-18T12:25:01;100270.75;;;15.97;37.00
11672;BME280;5892;43.412;24.612;2023-02-18T12:27:34;100275.13;;;15.98;37.07
11672;BME280;5892;43.412;24.612;2023-02-18T12:30:31;100282.63;;;15.97;37.25
11672;BME280;5892;43.412;24.612;2023-02-18T12:33:09;100267.41;;;15.91;37.20
11672;BME280;5892;43.412;24.612;2023-02-18T12:35:52;100270.66;;;15.93;37.53
11672;BME280;5892;43.412;24.612;2023-02-18T12:38:54;100259.69;;;15.97;37.42
11672;BME280;5892;43.412;24.612;2023-02-18T12:41:35;100268.56;;;16.02;37.81
11672;BME280;5892;43.412;24.612;2023-02-18T12:44:17;100240.81;;;15.99;37.57
11672;BME280;5892;43.412;24.612;2023-02-18T12:47:04;100270.09;;;16.00;37.79
11672;BME280;5892;43.412;24.612;2023-02-18T12:49:56;100273.75;;;16.04;37.55
11672;BME280;5892;43.412;24.612;2023-02-18T12:52:36;100263.50;;;15.92;37.53
11672;BME280;5892;43.412;24.612;2023-02-18T12:55:24;100273.09;;;15.95;37.64
11672;BME280;5892;43.412;24.612;2023-02-18T12:58:02;100265.22;;;15.97;37.80
11672;BME280;5892;43.412;24.612;2023-02-18T13:00:52;100264.22;;;15.89;38.15
11672;BME280;5892;43.412;24.612;2023-02-18T13:06:45;100287.34;;;15.97;38.27
11672;BME280;5892;43.412;24.612;2023-02-18T13:09:25;100286.53;;;15.96;38.38
11672;BME280;5892;43.412;24.612;2023-02-18T13:12:02;100287.91;;;16.02;38.23
11672;BME280;5892;43.412;24.612;2023-02-18T13:14:35;100268.13;;;15.88;38.37
11672;BME280;5892;43.412;24.612;2023-02-18T13:17:09;100276.66;;;15.95;38.10